sensor_id;sensor_type;location;lat;lon;timestamp;P1;durP1;ratioP1;P2;durP2;ratioP2
4462;SDS011;2244;50.200;8.220;2023-03-08T00:02:06;11.43;;;6.27;;
4462;SDS011;2244;50.200;8.220;2023-03-08T00:04:33;13.10;;;5.30;;
4462;SDS011;2244;50.200;8.220;2023-03-08T00:07:00;11.20;;;5.93;;
4462;SDS011;2244;50.200;8.220;2023-03-08T00:09:28;11.70;;;6.93;;
4462;SDS011;2244;50.200;8.220;2023-03-08T00:11:55;11.10;;;6.23;;
4462;SDS011;2244;50.200;8.220;2023-03-08T00:14:22;12.37;;;6.37;;
4462;SDS011;2244;50.200;8.220;2023-03-08T00:16:50;12.50;;;7.50;;
4462;SDS011;2244;50.200;8.220;2023-03-08T00:19:17;12.10;;;7.10;;
4462;SDS011;2244;50.200;8.220;2023-03-08T00:21:44;10.93;;;6.20;;
4462;SDS011;2244;50.200;8.220;2023-03-08T00:24:12;12.47;;;7.20;;
4462;SDS011;2244;50.200;8.220;2023-03-08T00:26:41;13.13;;;7.17;;
4462;SDS011;2244;50.200;8.220;2023-03-08T00:29:09;11.97;;;6.97;;
4462;SDS011;2244;50.200;8.220;2023-03-08T00:31:36;11.13;;;6.83;;
4462;SDS011;2244;50.200;8.220;2023-03-08T00:34:04;10.90;;;6.20;;
4462;SDS011;2244;50.200;8.220;2023-03-08T00:36:31;11.87;;;7.07;;
4462;SDS011;2244;50.200;8.220;2023-03-08T00:38:59;13.50;;;7.87;;
4462;SDS011;2244;50.200;8.220;2023-03-08T00:41:26;11.93;;;7.13;;
4462;SDS011;2244;50.200;8.220;2023-03-08T00:43:53;13.60;;;7.93;;
4462;SDS011;2244;50.200;8.220;2023-03-08T00:46:21;11.73;;;6.90;;
4462;SDS011;2244;50.200;8.220;2023-03-08T00:48:48;12.20;;;7.30;;
4462;SDS011;2244;50.200;8.220;2023-03-08T00:51:17;14.40;;;9.23;;
4462;SDS011;2244;50.200;8.220;2023-03-08T00:53:45;14.20;;;8.60;;
4462;SDS011;2244;50.200;8.220;2023-03-08T00:56:12;14.30;;;8.67;;
4462;SDS011;2244;50.200;8.220;2023-03-08T00:58:40;13.80;;;8.50;;
4462;SDS011;2244;50.200;8.220;2023-03-08T01:01:08;16.17;;;10.13;;
4462;SDS011;2244;50.200;8.220;2023-03-08T01:03:36;15.80;;;9.67;;
4462;SDS011;2244;50.200;8.220;2023-03-08T01:06:05;14.50;;;9.20;;
4462;SDS011;2244;50.200;8.220;2023-03-08T01:08:33;13.27;;;8.17;;
4462;SDS011;2244;50.200;8.220;2023-03-08T01:11:00;15.77;;;10.20;;
4462;SDS011;2244;50.200;8.220;2023-03-08T01:13:32;17.20;;;10.23;;
4462;SDS011;2244;50.200;8.220;2023-03-08T01:15:59;15.13;;;9.20;;
4462;SDS011;2244;50.200;8.220;2023-03-08T01:18:27;15.03;;;9.33;;
4462;SDS011;2244;50.200;8.220;2023-03-08T01:20:58;15.13;;;9.20;;
4462;SDS011;2244;50.200;8.220;2023-03-08T01:23:25;17.33;;;10.80;;
4462;SDS011;2244;50.200;8.220;2023-03-08T01:25:57;16.50;;;10.07;;
4462;SDS011;2244;50.200;8.220;2023-03-08T01:28:24;14.80;;;9.23;;
4462;SDS011;2244;50.200;8.220;2023-03-08T01:30:52;15.60;;;9.30;;
4462;SDS011;2244;50.200;8.220;2023-03-08T01:33:19;15.70;;;9.90;;
4462;SDS011;2244;50.200;8.220;2023-03-08T01:35:47;15.47;;;10.03;;
4462;SDS011;2244;50.200;8.220;2023-03-08T01:38:14;16.80;;;10.13;;
4462;SDS011;2244;50.200;8.220;2023-03-08T01:40:41;17.00;;;10.73;;
4462;SDS011;2244;50.200;8.220;2023-03-08T01:43:23;19.17;;;11.20;;
4462;SDS011;2244;50.200;8.220;2023-03-08T01:48:40;17.13;;;9.87;;
4462;SDS011;2244;50.200;8.220;2023-03-08T01:51:10;15.67;;;10.17;;
4462;SDS011;2244;50.200;8.220;2023-03-08T01:53:37;14.83;;;9.40;;
4462;SDS011;2244;50.200;8.220;2023-03-08T01:56:05;16.60;;;11.10;;
4462;SDS011;2244;50.200;8.220;2023-03-08T01:58:34;17.40;;;10.30;;
4462;SDS011;2244;50.200;8.220;2023-03-08T02:01:01;20.90;;;12.47;;
4462;SDS011;2244;50.200;8.220;2023-03-08T02:03:29;31.40;;;15.30;;
4462;SDS011;2244;50.200;8.220;2023-03-08T02:05:56;23.17;;;13.10;;
4462;SDS011;2244;50.200;8.220;2023-03-08T02:08:24;17.97;;;12.20;;
4462;SDS011;2244;50.200;8.220;2023-03-08T02:10:51;17.27;;;11.03;;
4462;SDS011;2244;50.200;8.220;2023-03-08T02:13:19;21.80;;;12.83;;
4462;SDS011;2244;50.200;8.220;2023-03-08T02:15:47;18.13;;;11.80;;
4462;SDS011;2244;50.200;8.220;2023-03-08T02:18:14;19.43;;;12.67;;
4462;SDS011;2244;50.200;8.220;2023-03-08T02:20:42;18.60;;;10.93;;
4462;SDS011;2244;50.200;8.220;2023-03-08T02:25:38;20.93;;;12.93;;
4462;SDS011;2244;50.200;8.220;2023-03-08T02:28:06;20.63;;;10.57;;
4462;SDS011;2244;50.200;8.220;2023-03-08T02:30:35;18.93;;;10.70;;
4462;SDS011;2244;50.200;8.220;2023-03-08T02:33:03;18.43;;;11.00;;
4462;SDS011;2244;50.200;8.220;2023-03-08T02:35:31;14.70;;;9.47;;
4462;SDS011;2244;50.200;8.220;2023-03-08T02:37:58;21.60;;;12.50;;
4462;SDS011;2244;50.200;8.220;2023-03-08T02:40:25;19.60;;;10.40;;
4462;SDS011;2244;50.200;8.220;2023-03-08T02:42:53;17.77;;;10.37;;
4462;SDS011;2244;50.200;8.220;2023-03-08T02:45:21;15.97;;;9.23;;
4462;SDS011;2244;50.200;8.220;2023-03-08T02:47:49;14.80;;;8.43;;
4462;SDS011;2244;50.200;8.220;2023-03-08T02:50:16;15.23;;;9.03;;
4462;SDS011;2244;50.200;8.220;2023-03-08T02:52:44;15.53;;;9.13;;
4462;SDS011;2244;50.200;8.220;2023-03-08T02:55:11;19.23;;;8.53;;
4462;SDS011;2244;50.200;8.220;2023-03-08T02:57:38;12.20;;;7.20;;
4462;SDS011;2244;50.200;8.220;2023-03-08T03:00:06;13.40;;;7.93;;
4462;SDS011;2244;50.200;8.220;2023-03-08T03:02:34;13.43;;;7.80;;
4462;SDS011;2244;50.200;8.220;2023-03-08T03:05:02;14.03;;;8.73;;
4462;SDS011;2244;50.200;8.220;2023-03-08T03:07:30;14.10;;;8.40;;
4462;SDS011;2244;50.200;8.220;2023-03-08T03:09:59;16.43;;;9.20;;
4462;SDS011;2244;50.200;8.220;2023-03-08T03:12:26;17.67;;;10.50;;
4462;SDS011;2244;50.200;8.220;2023-03-08T03:14:53;15.00;;;9.20;;
4462;SDS011;2244;50.200;8.220;2023-03-08T03:17:22;15.07;;;9.30;;
4462;SDS011;2244;50.200;8.220;2023-03-08T03:19:49;14.60;;;9.20;;
4462;SDS011;2244;50.200;8.220;2023-03-08T03:22:16;17.87;;;10.77;;
4462;SDS011;2244;50.200;8.220;2023-03-08T03:24:44;19.50;;;11.43;;
4462;SDS011;2244;50.200;8.220;2023-03-08T03:27:11;16.77;;;10.60;;
4462;SDS011;2244;50.200;8.220;2023-03-08T03:29:38;17.40;;;10.60;;
4462;SDS011;2244;50.200;8.220;2023-03-08T03:32:06;16.93;;;10.47;;
4462;SDS011;2244;50.200;8.220;2023-03-08T03:34:33;17.20;;;10.60;;
4462;SDS011;2244;50.200;8.220;2023-03-08T03:37:01;19.50;;;11.37;;
4462;SDS011;2244;50.200;8.220;2023-03-08T03:39:28;19.23;;;12.07;;
4462;SDS011;2244;50.200;8.220;2023-03-08T03:41:57;19.23;;;11.30;;
4462;SDS011;2244;50.200;8.220;2023-03-08T03:44:25;20.40;;;12.10;;
4462;SDS011;2244;50.200;8.220;2023-03-08T03:46:52;20.67;;;13.20;;
4462;SDS011;2244;50.200;8.220;2023-03-08T03:49:19;23.50;;;13.17;;
4462;SDS011;2244;50.200;8.220;2023-03-08T03:51:47;22.53;;;13.90;;
4462;SDS011;2244;50.200;8.220;2023-03-08T03:54:14;18.73;;;12.27;;
4462;SDS011;2244;50.200;8.220;2023-03-08T03:56:41;19.30;;;12.40;;
4462;SDS011;2244;50.200;8.220;2023-03-08T03:59:09;20.17;;;11.60;;
4462;SDS011;2244;50.200;8.220;2023-03-08T04:01:36;22.83;;;13.20;;
4462;SDS011;2244;50.200;8.220;2023-03-08T04:04:04;20.53;;;11.87;;
4462;SDS011;2244;50.200;8.220;2023-03-08T04:06:32;22.90;;;12.93;;
4462;SDS011;2244;50.200;8.220;2023-03-08T04:09:01;17.63;;;11.07;;
4462;SDS011;2244;50.200;8.220;2023-03-08T04:11:31;19.87;;;12.13;;
4462;SDS011;2244;50.200;8.220;2023-03-08T04:13:57;22.80;;;12.97;;
4462;SDS011;2244;50.200;8.220;2023-03-08T04:16:25;20.37;;;11.97;;
4462;SDS011;2244;50.200;8.220;2023-03-08T04:18:56;23.77;;;13.63;;
4462;SDS011;2244;50.200;8.220;2023-03-08T04:21:23;23.30;;;14.23;;
4462;SDS011;2244;50.200;8.220;2023-03-08T04:23:51;26.20;;;14.63;;
4462;SDS011;2244;50.200;8.220;2023-03-08T04:26:18;24.10;;;14.97;;
4462;SDS011;2244;50.200;8.220;2023-03-08T04:28:46;23.57;;;13.60;;
4462;SDS011;2244;50.200;8.220;2023-03-08T04:31:14;23.37;;;14.93;;
4462;SDS011;2244;50.200;8.220;2023-03-08T04:33:43;23.83;;;15.57;;
4462;SDS011;2244;50.200;8.220;2023-03-08T04:36:11;28.40;;;16.90;;
4462;SDS011;2244;50.200;8.220;2023-03-08T04:38:40;25.93;;;15.80;;
4462;SDS011;2244;50.200;8.220;2023-03-08T04:41:07;23.53;;;15.17;;
4462;SDS011;2244;50.200;8.220;2023-03-08T04:43:38;25.63;;;16.17;;
4462;SDS011;2244;50.200;8.220;2023-03-08T04:46:06;28.87;;;17.20;;
4462;SDS011;2244;50.200;8.220;2023-03-08T04:48:33;25.00;;;15.80;;
4462;SDS011;2244;50.200;8.220;2023-03-08T04:51:02;25.37;;;15.50;;
4462;SDS011;2244;50.200;8.220;2023-03-08T04:53:30;26.87;;;16.30;;
4462;SDS011;2244;50.200;8.220;2023-03-08T04:55:58;26.50;;;15.80;;
4462;SDS011;2244;50.200;8.220;2023-03-08T04:58:26;25.90;;;16.57;;
4462;SDS011;2244;50.200;8.220;2023-03-08T05:00:54;28.50;;;17.03;;
4462;SDS011;2244;50.200;8.220;2023-03-08T05:03:21;26.73;;;17.00;;
4462;SDS011;2244;50.200;8.220;2023-03-08T05:05:50;28.10;;;16.73;;
4462;SDS011;2244;50.200;8.220;2023-03-08T05:08:18;28.37;;;17.70;;
4462;SDS011;2244;50.200;8.220;2023-03-08T05:10:56;30.37;;;17.10;;
4462;SDS011;2244;50.200;8.220;2023-03-08T05:13:14;27.40;;;16.60;;
4462;SDS011;2244;50.200;8.220;2023-03-08T05:15:42;27.50;;;16.57;;
4462;SDS011;2244;50.200;8.220;2023-03-08T05:18:09;28.20;;;16.97;;
4462;SDS011;2244;50.200;8.220;2023-03-08T05:20:37;27.57;;;16.70;;
4462;SDS011;2244;50.200;8.220;2023-03-08T05:23:04;29.17;;;17.97;;
4462;SDS011;2244;50.200;8.220;2023-03-08T05:25:31;29.27;;;17.33;;
4462;SDS011;2244;50.200;8.220;2023-03-08T05:27:59;24.73;;;15.30;;
4462;SDS011;2244;50.200;8.220;2023-03-08T05:30:26;28.53;;;16.00;;
4462;SDS011;2244;50.200;8.220;2023-03-08T05:32:54;28.07;;;17.13;;
4462;SDS011;2244;50.200;8.220;2023-03-08T05:35:21;24.40;;;15.03;;
4462;SDS011;2244;50.200;8.220;2023-03-08T05:37:48;28.67;;;17.63;;
4462;SDS011;2244;50.200;8.220;2023-03-08T05:40:16;34.10;;;19.70;;
4462;SDS011;2244;50.200;8.220;2023-03-08T05:42:43;28.07;;;16.30;;
4462;SDS011;2244;50.200;8.220;2023-03-08T05:45:10;27.53;;;17.13;;
4462;SDS011;2244;50.200;8.220;2023-03-08T05:47:38;30.53;;;17.50;;
4462;SDS011;2244;50.200;8.220;2023-03-08T05:50:05;26.97;;;16.20;;
4462;SDS011;2244;50.200;8.220;2023-03-08T05:52:33;28.40;;;17.10;;
4462;SDS011;2244;50.200;8.220;2023-03-08T05:55:00;25.03;;;16.23;;
4462;SDS011;2244;50.200;8.220;2023-03-08T05:57:27;30.50;;;17.13;;
4462;SDS011;2244;50.200;8.220;2023-03-08T05:59:55;25.80;;;16.67;;
4462;SDS011;2244;50.200;8.220;2023-03-08T06:02:22;28.67;;;18.40;;
4462;SDS011;2244;50.200;8.220;2023-03-08T06:04:50;27.33;;;18.00;;
4462;SDS011;2244;50.200;8.220;2023-03-08T06:07:17;27.33;;;16.60;;
4462;SDS011;2244;50.200;8.220;2023-03-08T06:09:44;26.17;;;16.00;;
4462;SDS011;2244;50.200;8.220;2023-03-08T06:12:12;27.83;;;17.17;;
4462;SDS011;2244;50.200;8.220;2023-03-08T06:14:39;30.13;;;19.30;;
4462;SDS011;2244;50.200;8.220;2023-03-08T06:17:07;29.20;;;17.80;;
4462;SDS011;2244;50.200;8.220;2023-03-08T06:19:35;27.73;;;16.53;;
4462;SDS011;2244;50.200;8.220;2023-03-08T06:22:07;29.27;;;18.13;;
4462;SDS011;2244;50.200;8.220;2023-03-08T06:24:36;27.93;;;17.47;;
4462;SDS011;2244;50.200;8.220;2023-03-08T06:27:06;31.13;;;18.60;;
4462;SDS011;2244;50.200;8.220;2023-03-08T06:29:36;25.00;;;15.30;;
4462;SDS011;2244;50.200;8.220;2023-03-08T06:32:05;27.97;;;18.27;;
4462;SDS011;2244;50.200;8.220;2023-03-08T06:34:33;29.40;;;17.87;;
4462;SDS011;2244;50.200;8.220;2023-03-08T06:37:01;30.67;;;18.50;;
4462;SDS011;2244;50.200;8.220;2023-03-08T06:39:29;30.37;;;17.37;;
4462;SDS011;2244;50.200;8.220;2023-03-08T06:41:57;30.03;;;18.50;;
4462;SDS011;2244;50.200;8.220;2023-03-08T06:44:28;27.83;;;18.37;;
4462;SDS011;2244;50.200;8.220;2023-03-08T06:46:57;24.30;;;15.57;;
4462;SDS011;2244;50.200;8.220;2023-03-08T06:49:25;28.23;;;17.37;;
4462;SDS011;2244;50.200;8.220;2023-03-08T06:51:54;28.80;;;18.30;;
4462;SDS011;2244;50.200;8.220;2023-03-08T06:54:21;25.67;;;15.23;;
4462;SDS011;2244;50.200;8.220;2023-03-08T06:56:49;26.17;;;17.07;;
4462;SDS011;2244;50.200;8.220;2023-03-08T06:59:17;27.20;;;16.77;;
4462;SDS011;2244;50.200;8.220;2023-03-08T07:01:46;25.77;;;16.00;;
4462;SDS011;2244;50.200;8.220;2023-03-08T07:04:14;25.37;;;15.80;;
4462;SDS011;2244;50.200;8.220;2023-03-08T07:06:43;26.73;;;15.53;;
4462;SDS011;2244;50.200;8.220;2023-03-08T07:09:11;24.33;;;15.43;;
4462;SDS011;2244;50.200;8.220;2023-03-08T07:11:39;25.10;;;16.03;;
4462;SDS011;2244;50.200;8.220;2023-03-08T07:14:07;24.70;;;15.33;;
4462;SDS011;2244;50.200;8.220;2023-03-08T07:16:35;30.50;;;15.40;;
4462;SDS011;2244;50.200;8.220;2023-03-08T07:19:02;28.43;;;17.77;;
4462;SDS011;2244;50.200;8.220;2023-03-08T07:21:30;26.13;;;15.93;;
4462;SDS011;2244;50.200;8.220;2023-03-08T07:23:57;27.60;;;17.17;;
4462;SDS011;2244;50.200;8.220;2023-03-08T07:26:25;28.10;;;16.03;;
4462;SDS011;2244;50.200;8.220;2023-03-08T07:28:52;25.30;;;15.80;;
4462;SDS011;2244;50.200;8.220;2023-03-08T07:31:21;24.43;;;15.40;;
4462;SDS011;2244;50.200;8.220;2023-03-08T07:33:48;22.03;;;13.90;;
4462;SDS011;2244;50.200;8.220;2023-03-08T07:36:15;24.30;;;15.70;;
4462;SDS011;2244;50.200;8.220;2023-03-08T07:38:43;23.33;;;13.97;;
4462;SDS011;2244;50.200;8.220;2023-03-08T07:41:12;21.30;;;13.57;;
4462;SDS011;2244;50.200;8.220;2023-03-08T07:43:39;24.23;;;14.03;;
4462;SDS011;2244;50.200;8.220;2023-03-08T07:46:07;20.90;;;12.37;;
4462;SDS011;2244;50.200;8.220;2023-03-08T07:48:34;19.87;;;13.27;;
4462;SDS011;2244;50.200;8.220;2023-03-08T07:51:06;21.60;;;13.67;;
4462;SDS011;2244;50.200;8.220;2023-03-08T07:53:35;21.07;;;13.93;;
4462;SDS011;2244;50.200;8.220;2023-03-08T07:56:03;21.87;;;13.53;;
4462;SDS011;2244;50.200;8.220;2023-03-08T07:58:31;17.23;;;11.23;;
4462;SDS011;2244;50.200;8.220;2023-03-08T08:00:58;19.97;;;11.50;;
4462;SDS011;2244;50.200;8.220;2023-03-08T08:03:27;17.10;;;11.07;;
4462;SDS011;2244;50.200;8.220;2023-03-08T08:05:55;17.83;;;10.60;;
4462;SDS011;2244;50.200;8.220;2023-03-08T08:08:22;14.30;;;9.20;;
4462;SDS011;2244;50.200;8.220;2023-03-08T08:10:50;13.40;;;8.10;;
4462;SDS011;2244;50.200;8.220;2023-03-08T08:13:17;15.07;;;8.90;;
4462;SDS011;2244;50.200;8.220;2023-03-08T08:15:44;16.30;;;8.77;;
4462;SDS011;2244;50.200;8.220;2023-03-08T08:18:12;13.37;;;7.00;;
4462;SDS011;2244;50.200;8.220;2023-03-08T08:20:39;11.33;;;6.43;;
4462;SDS011;2244;50.200;8.220;2023-03-08T08:23:06;12.37;;;6.63;;
4462;SDS011;2244;50.200;8.220;2023-03-08T08:25:34;13.20;;;7.33;;
4462;SDS011;2244;50.200;8.220;2023-03-08T08:28:01;13.17;;;7.63;;
4462;SDS011;2244;50.200;8.220;2023-03-08T08:30:29;13.03;;;6.90;;
4462;SDS011;2244;50.200;8.220;2023-03-08T08:32:56;12.73;;;6.73;;
4462;SDS011;2244;50.200;8.220;2023-03-08T08:35:25;11.37;;;6.30;;
4462;SDS011;2244;50.200;8.220;2023-03-08T08:37:54;11.60;;;5.80;;
4462;SDS011;2244;50.200;8.220;2023-03-08T08:40:21;11.33;;;6.07;;
4462;SDS011;2244;50.200;8.220;2023-03-08T08:42:49;11.87;;;6.23;;
4462;SDS011;2244;50.200;8.220;2023-03-08T08:45:17;11.93;;;6.70;;
4462;SDS011;2244;50.200;8.220;2023-03-08T08:47:45;10.57;;;5.67;;
4462;SDS011;2244;50.200;8.220;2023-03-08T08:50:13;11.17;;;5.70;;
4462;SDS011;2244;50.200;8.220;2023-03-08T08:52:40;11.60;;;5.23;;
4462;SDS011;2244;50.200;8.220;2023-03-08T08:55:08;9.70;;;5.20;;
4462;SDS011;2244;50.200;8.220;2023-03-08T08:57:35;9.70;;;4.50;;
4462;SDS011;2244;50.200;8.220;2023-03-08T09:00:03;9.70;;;4.27;;
4462;SDS011;2244;50.200;8.220;2023-03-08T09:02:35;10.53;;;4.60;;
4462;SDS011;2244;50.200;8.220;2023-03-08T09:05:02;8.07;;;3.80;;
4462;SDS011;2244;50.200;8.220;2023-03-08T09:07:30;8.60;;;3.63;;
4462;SDS011;2244;50.200;8.220;2023-03-08T09:09:57;9.23;;;4.60;;
4462;SDS011;2244;50.200;8.220;2023-03-08T09:12:27;9.10;;;4.27;;
4462;SDS011;2244;50.200;8.220;2023-03-08T09:14:54;9.70;;;5.00;;
4462;SDS011;2244;50.200;8.220;2023-03-08T09:17:22;10.40;;;5.07;;
4462;SDS011;2244;50.200;8.220;2023-03-08T09:19:49;9.73;;;4.80;;
4462;SDS011;2244;50.200;8.220;2023-03-08T09:22:17;11.90;;;5.67;;
4462;SDS011;2244;50.200;8.220;2023-03-08T09:24:44;11.13;;;5.00;;
4462;SDS011;2244;50.200;8.220;2023-03-08T09:27:11;11.60;;;5.77;;
4462;SDS011;2244;50.200;8.220;2023-03-08T09:29:39;12.20;;;5.43;;
4462;SDS011;2244;50.200;8.220;2023-03-08T09:32:07;8.97;;;4.37;;
4462;SDS011;2244;50.200;8.220;2023-03-08T09:34:35;10.10;;;4.23;;
4462;SDS011;2244;50.200;8.220;2023-03-08T09:37:02;9.93;;;4.73;;
4462;SDS011;2244;50.200;8.220;2023-03-08T09:39:31;10.23;;;4.63;;
4462;SDS011;2244;50.200;8.220;2023-03-08T09:41:59;9.10;;;4.30;;
4462;SDS011;2244;50.200;8.220;2023-03-08T09:44:37;8.60;;;4.20;;
4462;SDS011;2244;50.200;8.220;2023-03-08T09:47:01;11.20;;;5.70;;
4462;SDS011;2244;50.200;8.220;2023-03-08T09:49:29;10.83;;;5.17;;
4462;SDS011;2244;50.200;8.220;2023-03-08T09:52:06;10.10;;;4.60;;
4462;SDS011;2244;50.200;8.220;2023-03-08T09:54:32;11.60;;;5.50;;
4462;SDS011;2244;50.200;8.220;2023-03-08T09:57:01;10.13;;;5.00;;
4462;SDS011;2244;50.200;8.220;2023-03-08T09:59:33;9.83;;;5.10;;
4462;SDS011;2244;50.200;8.220;2023-03-08T10:04:45;10.57;;;4.80;;
4462;SDS011;2244;50.200;8.220;2023-03-08T10:09:47;9.87;;;4.93;;
4462;SDS011;2244;50.200;8.220;2023-03-08T10:15:08;9.53;;;4.17;;
4462;SDS011;2244;50.200;8.220;2023-03-08T10:17:44;9.07;;;3.97;;
4462;SDS011;2244;50.200;8.220;2023-03-08T10:20:06;8.80;;;3.90;;
4462;SDS011;2244;50.200;8.220;2023-03-08T10:22:34;9.13;;;4.30;;
4462;SDS011;2244;50.200;8.220;2023-03-08T10:25:10;8.07;;;3.63;;
4462;SDS011;2244;50.200;8.220;2023-03-08T10:27:33;9.10;;;4.13;;
4462;SDS011;2244;50.200;8.220;2023-03-08T10:30:01;9.03;;;4.60;;
4462;SDS011;2244;50.200;8.220;2023-03-08T10:32:30;9.13;;;4.10;;
4462;SDS011;2244;50.200;8.220;2023-03-08T10:35:01;9.00;;;4.27;;
4462;SDS011;2244;50.200;8.220;2023-03-08T10:37:29;8.10;;;3.57;;
4462;SDS011;2244;50.200;8.220;2023-03-08T10:39:59;8.57;;;3.67;;
4462;SDS011;2244;50.200;8.220;2023-03-08T10:42:28;8.77;;;4.07;;
4462;SDS011;2244;50.200;8.220;2023-03-08T10:45:01;8.53;;;4.10;;
4462;SDS011;2244;50.200;8.220;2023-03-08T10:47:30;8.27;;;3.60;;
4462;SDS011;2244;50.200;8.220;2023-03-08T10:52:39;9.40;;;4.03;;
4462;SDS011;2244;50.200;8.220;2023-03-08T10:55:19;8.17;;;3.53;;
4462;SDS011;2244;50.200;8.220;2023-03-08T10:57:49;7.40;;;2.40;;
4462;SDS011;2244;50.200;8.220;2023-03-08T11:02:46;7.23;;;2.40;;
4462;SDS011;2244;50.200;8.220;2023-03-08T11:05:21;7.03;;;2.40;;
4462;SDS011;2244;50.200;8.220;2023-03-08T11:07:50;7.40;;;2.40;;
4462;SDS011;2244;50.200;8.220;2023-03-08T11:10:18;6.67;;;1.87;;
4462;SDS011;2244;50.200;8.220;2023-03-08T11:12:46;6.70;;;2.10;;
4462;SDS011;2244;50.200;8.220;2023-03-08T11:15:14;7.00;;;2.50;;
4462;SDS011;2244;50.200;8.220;2023-03-08T11:17:52;6.77;;;2.20;;
4462;SDS011;2244;50.200;8.220;2023-03-08T11:20:15;19.63;;;9.60;;
4462;SDS011;2244;50.200;8.220;2023-03-08T11:23:04;7.53;;;2.80;;
4462;SDS011;2244;50.200;8.220;2023-03-08T11:25:46;6.87;;;2.27;;
4462;SDS011;2244;50.200;8.220;2023-03-08T11:28:18;7.00;;;2.50;;
4462;SDS011;2244;50.200;8.220;2023-03-08T11:30:58;7.00;;;2.30;;
4462;SDS011;2244;50.200;8.220;2023-03-08T11:38:39;7.50;;;2.80;;
4462;SDS011;2244;50.200;8.220;2023-03-08T11:41:18;7.60;;;3.00;;
4462;SDS011;2244;50.200;8.220;2023-03-08T11:43:49;8.27;;;3.50;;
4462;SDS011;2244;50.200;8.220;2023-03-08T11:46:16;8.17;;;3.47;;
4462;SDS011;2244;50.200;8.220;2023-03-08T11:48:52;11.13;;;3.40;;
4462;SDS011;2244;50.200;8.220;2023-03-08T11:51:25;8.10;;;3.57;;
4462;SDS011;2244;50.200;8.220;2023-03-08T11:56:26;8.87;;;4.03;;
4462;SDS011;2244;50.200;8.220;2023-03-08T11:58:57;8.60;;;3.73;;
4462;SDS011;2244;50.200;8.220;2023-03-08T12:01:23;9.90;;;4.63;;
4462;SDS011;2244;50.200;8.220;2023-03-08T12:03:51;10.47;;;5.17;;
4462;SDS011;2244;50.200;8.220;2023-03-08T12:06:25;8.47;;;4.00;;
4462;SDS011;2244;50.200;8.220;2023-03-08T12:11:23;9.40;;;4.90;;
4462;SDS011;2244;50.200;8.220;2023-03-08T12:14:00;10.20;;;5.73;;
4462;SDS011;2244;50.200;8.220;2023-03-08T12:16:27;8.63;;;4.00;;
4462;SDS011;2244;50.200;8.220;2023-03-08T12:24:12;9.80;;;5.33;;
4462;SDS011;2244;50.200;8.220;2023-03-08T12:26:37;10.27;;;4.67;;
4462;SDS011;2244;50.200;8.220;2023-03-08T12:29:08;11.13;;;6.57;;
4462;SDS011;2244;50.200;8.220;2023-03-08T12:31:42;11.00;;;6.57;;
4462;SDS011;2244;50.200;8.220;2023-03-08T12:34:28;11.70;;;6.70;;
4462;SDS011;2244;50.200;8.220;2023-03-08T12:36:39;10.80;;;6.10;;
4462;SDS011;2244;50.200;8.220;2023-03-08T12:39:27;12.30;;;7.10;;
4462;SDS011;2244;50.200;8.220;2023-03-08T12:41:59;12.03;;;6.10;;
4462;SDS011;2244;50.200;8.220;2023-03-08T12:44:27;11.13;;;5.73;;
4462;SDS011;2244;50.200;8.220;2023-03-08T12:46:57;10.40;;;5.60;;
4462;SDS011;2244;50.200;8.220;2023-03-08T12:49:28;10.73;;;5.90;;
4462;SDS011;2244;50.200;8.220;2023-03-08T12:52:05;10.03;;;5.67;;
4462;SDS011;2244;50.200;8.220;2023-03-08T12:54:24;9.40;;;5.30;;
4462;SDS011;2244;50.200;8.220;2023-03-08T12:56:53;10.90;;;6.20;;
4462;SDS011;2244;50.200;8.220;2023-03-08T12:59:28;10.30;;;5.70;;
4462;SDS011;2244;50.200;8.220;2023-03-08T13:04:29;10.13;;;5.30;;
4462;SDS011;2244;50.200;8.220;2023-03-08T13:12:18;13.53;;;4.87;;
4462;SDS011;2244;50.200;8.220;2023-03-08T13:17:30;9.40;;;4.90;;
4462;SDS011;2244;50.200;8.220;2023-03-08T13:20:03;9.53;;;5.07;;
4462;SDS011;2244;50.200;8.220;2023-03-08T13:25:24;8.90;;;4.60;;
4462;SDS011;2244;50.200;8.220;2023-03-08T13:27:41;8.53;;;4.23;;
4462;SDS011;2244;50.200;8.220;2023-03-08T13:30:15;9.33;;;4.60;;
4462;SDS011;2244;50.200;8.220;2023-03-08T13:32:37;9.30;;;4.60;;
4462;SDS011;2244;50.200;8.220;2023-03-08T13:35:05;10.70;;;5.87;;
4462;SDS011;2244;50.200;8.220;2023-03-08T13:37:32;8.50;;;4.30;;
4462;SDS011;2244;50.200;8.220;2023-03-08T13:40:00;8.80;;;4.60;;
4462;SDS011;2244;50.200;8.220;2023-03-08T13:42:27;11.17;;;5.80;;
4462;SDS011;2244;50.200;8.220;2023-03-08T13:45:08;10.77;;;5.70;;
4462;SDS011;2244;50.200;8.220;2023-03-08T13:47:36;10.13;;;5.53;;
4462;SDS011;2244;50.200;8.220;2023-03-08T13:50:04;10.83;;;5.80;;
4462;SDS011;2244;50.200;8.220;2023-03-08T13:52:32;12.07;;;6.97;;
4462;SDS011;2244;50.200;8.220;2023-03-08T13:55:02;13.23;;;7.63;;
4462;SDS011;2244;50.200;8.220;2023-03-08T13:57:30;13.57;;;8.20;;
4462;SDS011;2244;50.200;8.220;2023-03-08T14:00:00;14.40;;;8.77;;
4462;SDS011;2244;50.200;8.220;2023-03-08T14:02:31;12.10;;;7.30;;
4462;SDS011;2244;50.200;8.220;2023-03-08T14:04:58;12.33;;;7.40;;
4462;SDS011;2244;50.200;8.220;2023-03-08T14:07:27;12.90;;;8.03;;
4462;SDS011;2244;50.200;8.220;2023-03-08T14:09:54;12.77;;;7.40;;
4462;SDS011;2244;50.200;8.220;2023-03-08T14:12:23;11.60;;;6.60;;
4462;SDS011;2244;50.200;8.220;2023-03-08T14:14:53;13.33;;;8.10;;
4462;SDS011;2244;50.200;8.220;2023-03-08T14:17:21;12.50;;;6.80;;
4462;SDS011;2244;50.200;8.220;2023-03-08T14:20:00;11.53;;;6.40;;
4462;SDS011;2244;50.200;8.220;2023-03-08T14:22:24;13.43;;;6.87;;
4462;SDS011;2244;50.200;8.220;2023-03-08T14:24:55;12.17;;;7.07;;
4462;SDS011;2244;50.200;8.220;2023-03-08T14:27:31;12.33;;;7.20;;
4462;SDS011;2244;50.200;8.220;2023-03-08T14:30:00;12.40;;;6.63;;
4462;SDS011;2244;50.200;8.220;2023-03-08T14:32:34;14.47;;;7.67;;
4462;SDS011;2244;50.200;8.220;2023-03-08T14:35:19;13.40;;;6.90;;
4462;SDS011;2244;50.200;8.220;2023-03-08T14:37:44;11.83;;;6.87;;
4462;SDS011;2244;50.200;8.220;2023-03-08T14:40:17;11.27;;;6.40;;
4462;SDS011;2244;50.200;8.220;2023-03-08T14:42:43;11.03;;;6.20;;
4462;SDS011;2244;50.200;8.220;2023-03-08T14:45:19;12.80;;;7.10;;
4462;SDS011;2244;50.200;8.220;2023-03-08T14:47:56;11.70;;;6.30;;
4462;SDS011;2244;50.200;8.220;2023-03-08T14:50:26;12.97;;;7.50;;
4462;SDS011;2244;50.200;8.220;2023-03-08T14:52:54;12.87;;;7.57;;
4462;SDS011;2244;50.200;8.220;2023-03-08T14:55:27;11.03;;;5.80;;
4462;SDS011;2244;50.200;8.220;2023-03-08T14:58:07;11.10;;;5.93;;
4462;SDS011;2244;50.200;8.220;2023-03-08T15:00:28;12.13;;;6.73;;
4462;SDS011;2244;50.200;8.220;2023-03-08T15:02:57;11.37;;;5.83;;
4462;SDS011;2244;50.200;8.220;2023-03-08T15:05:24;10.10;;;5.40;;
4462;SDS011;2244;50.200;8.220;2023-03-08T15:07:54;9.20;;;4.70;;
4462;SDS011;2244;50.200;8.220;2023-03-08T15:10:29;10.30;;;5.20;;
4462;SDS011;2244;50.200;8.220;2023-03-08T15:12:56;9.90;;;5.10;;
4462;SDS011;2244;50.200;8.220;2023-03-08T15:15:24;9.87;;;4.50;;
4462;SDS011;2244;50.200;8.220;2023-03-08T15:17:51;8.73;;;4.07;;
4462;SDS011;2244;50.200;8.220;2023-03-08T15:20:19;9.47;;;4.10;;
4462;SDS011;2244;50.200;8.220;2023-03-08T15:22:48;9.73;;;4.70;;
4462;SDS011;2244;50.200;8.220;2023-03-08T15:25:36;9.80;;;4.30;;
4462;SDS011;2244;50.200;8.220;2023-03-08T15:28:04;10.70;;;4.67;;
4462;SDS011;2244;50.200;8.220;2023-03-08T15:30:32;9.63;;;4.60;;
4462;SDS011;2244;50.200;8.220;2023-03-08T15:32:59;8.40;;;3.77;;
4462;SDS011;2244;50.200;8.220;2023-03-08T15:35:28;9.77;;;4.20;;
4462;SDS011;2244;50.200;8.220;2023-03-08T15:37:55;9.67;;;4.63;;
4462;SDS011;2244;50.200;8.220;2023-03-08T15:40:24;11.07;;;5.00;;
4462;SDS011;2244;50.200;8.220;2023-03-08T15:42:51;10.53;;;5.50;;
4462;SDS011;2244;50.200;8.220;2023-03-08T15:45:19;10.70;;;5.43;;
4462;SDS011;2244;50.200;8.220;2023-03-08T15:47:56;10.27;;;5.23;;
4462;SDS011;2244;50.200;8.220;2023-03-08T15:50:24;9.93;;;5.00;;
4462;SDS011;2244;50.200;8.220;2023-03-08T15:52:52;9.27;;;4.40;;
4462;SDS011;2244;50.200;8.220;2023-03-08T15:55:20;8.97;;;4.27;;